sensor_id;sensor_type;location;lat;lon;timestamp;temperature;humidity
8892;DHT22;4482;54.332;10.118;2024-03-17T00:01:51;5.30;99.90
8892;DHT22;4482;54.332;10.118;2024-03-17T00:04:17;5.30;99.90
8892;DHT22;4482;54.332;10.118;2024-03-17T00:06:46;5.30;99.90
8892;DHT22;4482;54.332;10.118;2024-03-17T00:09:12;5.30;99.90
8892;DHT22;4482;54.332;10.118;2024-03-17T00:11:41;5.30;99.90
8892;DHT22;4482;54.332;10.118;2024-03-17T00:14:07;5.30;99.90
8892;DHT22;4482;54.332;10.118;2024-03-17T00:16:34;5.30;99.90
8892;DHT22;4482;54.332;10.118;2024-03-17T00:18:59;5.30;99.90
8892;DHT22;4482;54.332;10.118;2024-03-17T00:21:26;5.20;99.90
8892;DHT22;4482;54.332;10.118;2024-03-17T00:23:53;5.30;99.90
8892;DHT22;4482;54.332;10.118;2024-03-17T00:26:20;5.30;99.90
8892;DHT22;4482;54.332;10.118;2024-03-17T00:28:46;5.20;99.90
8892;DHT22;4482;54.332;10.118;2024-03-17T00:31:15;5.30;99.90
8892;DHT22;4482;54.332;10.118;2024-03-17T00:33:41;5.30;99.90
8892;DHT22;4482;54.332;10.118;2024-03-17T00:36:09;5.30;99.90
8892;DHT22;4482;54.332;10.118;2024-03-17T00:38:35;5.30;99.90
8892;DHT22;4482;54.332;10.118;2024-03-17T00:41:03;5.30;99.90
8892;DHT22;4482;54.332;10.118;2024-03-17T00:43:29;5.30;99.90
8892;DHT22;4482;54.332;10.118;2024-03-17T00:45:56;5.30;99.90
8892;DHT22;4482;54.332;10.118;2024-03-17T00:48:22;5.30;99.90
8892;DHT22;4482;54.332;10.118;2024-03-17T00:50:54;5.30;99.90
8892;DHT22;4482;54.332;10.118;2024-03-17T00:53:19;5.40;99.90
8892;DHT22;4482;54.332;10.118;2024-03-17T00:55:50;5.40;99.90
8892;DHT22;4482;54.332;10.118;2024-03-17T00:58:17;5.40;99.90
8892;DHT22;4482;54.332;10.118;2024-03-17T01:00:44;5.30;99.90
8892;DHT22;4482;54.332;10.118;2024-03-17T01:03:09;5.30;99.90
8892;DHT22;4482;54.332;10.118;2024-03-17T01:05:37;5.30;99.90
8892;DHT22;4482;54.332;10.118;2024-03-17T01:08:07;5.30;99.90
8892;DHT22;4482;54.332;10.118;2024-03-17T01:10:36;5.30;99.90
8892;DHT22;4482;54.332;10.118;2024-03-17T01:13:02;5.30;99.90
8892;DHT22;4482;54.332;10.118;2024-03-17T01:15:30;5.30;99.90
8892;DHT22;4482;54.332;10.118;2024-03-17T01:17:56;5.30;99.90
8892;DHT22;4482;54.332;10.118;2024-03-17T01:20:22;5.30;99.90
8892;DHT22;4482;54.332;10.118;2024-03-17T01:22:49;5.30;99.90
8892;DHT22;4482;54.332;10.118;2024-03-17T01:25:15;5.30;99.90
8892;DHT22;4482;54.332;10.118;2024-03-17T01:27:41;5.30;99.90
8892;DHT22;4482;54.332;10.118;2024-03-17T01:30:09;5.20;99.90
8892;DHT22;4482;54.332;10.118;2024-03-17T01:32:36;5.10;99.90
8892;DHT22;4482;54.332;10.118;2024-03-17T01:35:03;5.10;99.90
8892;DHT22;4482;54.332;10.118;2024-03-17T01:37:31;5.00;99.90
8892;DHT22;4482;54.332;10.118;2024-03-17T01:39:57;5.00;99.90
8892;DHT22;4482;54.332;10.118;2024-03-17T01:42:24;5.00;99.90
8892;DHT22;4482;54.332;10.118;2024-03-17T01:44:49;4.90;99.90
8892;DHT22;4482;54.332;10.118;2024-03-17T01:47:17;4.90;99.90
8892;DHT22;4482;54.332;10.118;2024-03-17T01:49:45;4.90;99.90
8892;DHT22;4482;54.332;10.118;2024-03-17T01:52:13;4.90;99.90
8892;DHT22;4482;54.332;10.118;2024-03-17T01:54:38;4.90;99.90
8892;DHT22;4482;54.332;10.118;2024-03-17T01:57:05;4.90;99.90
8892;DHT22;4482;54.332;10.118;2024-03-17T01:59:31;4.80;99.90
8892;DHT22;4482;54.332;10.118;2024-03-17T02:01:58;4.80;99.90
8892;DHT22;4482;54.332;10.118;2024-03-17T02:04:24;4.70;99.90
8892;DHT22;4482;54.332;10.118;2024-03-17T02:06:52;4.60;99.90
8892;DHT22;4482;54.332;10.118;2024-03-17T02:09:18;4.60;99.90
8892;DHT22;4482;54.332;10.118;2024-03-17T02:11:47;4.60;99.90
8892;DHT22;4482;54.332;10.118;2024-03-17T02:14:13;4.50;99.90
8892;DHT22;4482;54.332;10.118;2024-03-17T02:16:42;4.50;99.90
8892;DHT22;4482;54.332;10.118;2024-03-17T02:19:08;4.50;99.90
8892;DHT22;4482;54.332;10.118;2024-03-17T02:21:35;4.50;99.90
8892;DHT22;4482;54.332;10.118;2024-03-17T02:24:02;4.50;99.90
8892;DHT22;4482;54.332;10.118;2024-03-17T02:26:29;4.40;99.90
8892;DHT22;4482;54.332;10.118;2024-03-17T02:28:55;4.40;99.90
8892;DHT22;4482;54.332;10.118;2024-03-17T02:31:21;4.40;99.90
8892;DHT22;4482;54.332;10.118;2024-03-17T02:33:47;4.40;99.90
8892;DHT22;4482;54.332;10.118;2024-03-17T02:36:14;4.30;99.90
8892;DHT22;4482;54.332;10.118;2024-03-17T02:38:42;4.30;99.90
8892;DHT22;4482;54.332;10.118;2024-03-17T02:41:28;4.30;99.90
8892;DHT22;4482;54.332;10.118;2024-03-17T02:43:55;4.30;99.90
8892;DHT22;4482;54.332;10.118;2024-03-17T02:46:21;4.30;99.90
8892;DHT22;4482;54.332;10.118;2024-03-17T02:48:50;4.20;99.90
8892;DHT22;4482;54.332;10.118;2024-03-17T02:51:18;4.20;99.90
8892;DHT22;4482;54.332;10.118;2024-03-17T02:53:45;4.20;99.90
8892;DHT22;4482;54.332;10.118;2024-03-17T02:56:12;4.20;99.90
8892;DHT22;4482;54.332;10.118;2024-03-17T02:58:43;4.20;99.90
8892;DHT22;4482;54.332;10.118;2024-03-17T03:01:10;4.20;99.90
8892;DHT22;4482;54.332;10.118;2024-03-17T03:03:36;4.20;99.90
8892;DHT22;4482;54.332;10.118;2024-03-17T03:06:03;4.10;99.90
8892;DHT22;4482;54.332;10.118;2024-03-17T03:08:34;4.10;99.90
8892;DHT22;4482;54.332;10.118;2024-03-17T03:11:01;4.10;99.90
8892;DHT22;4482;54.332;10.118;2024-03-17T03:13:27;4.10;99.90
8892;DHT22;4482;54.332;10.118;2024-03-17T03:15:55;4.10;99.90
8892;DHT22;4482;54.332;10.118;2024-03-17T03:18:23;4.10;99.90
8892;DHT22;4482;54.332;10.118;2024-03-17T03:20:50;4.00;99.90
8892;DHT22;4482;54.332;10.118;2024-03-17T03:23:16;4.00;99.90
8892;DHT22;4482;54.332;10.118;2024-03-17T03:25:43;4.00;99.90
8892;DHT22;4482;54.332;10.118;2024-03-17T03:28:10;4.00;99.90
8892;DHT22;4482;54.332;10.118;2024-03-17T03:30:37;3.90;99.90
8892;DHT22;4482;54.332;10.118;2024-03-17T03:33:05;3.90;99.90
8892;DHT22;4482;54.332;10.118;2024-03-17T03:35:32;3.90;99.90
8892;DHT22;4482;54.332;10.118;2024-03-17T03:37:59;3.90;99.90
8892;DHT22;4482;54.332;10.118;2024-03-17T03:40:26;3.90;99.90
8892;DHT22;4482;54.332;10.118;2024-03-17T03:42:53;3.90;99.90
8892;DHT22;4482;54.332;10.118;2024-03-17T03:45:19;3.90;99.90
8892;DHT22;4482;54.332;10.118;2024-03-17T03:47:46;3.90;99.90
8892;DHT22;4482;54.332;10.118;2024-03-17T03:50:17;3.90;99.90
8892;DHT22;4482;54.332;10.118;2024-03-17T03:52:43;3.80;99.90
8892;DHT22;4482;54.332;10.118;2024-03-17T03:55:11;3.90;99.90
8892;DHT22;4482;54.332;10.118;2024-03-17T03:57:40;3.80;99.90
8892;DHT22;4482;54.332;10.118;2024-03-17T04:00:07;3.80;99.90
8892;DHT22;4482;54.332;10.118;2024-03-17T04:02:37;3.80;99.90
8892;DHT22;4482;54.332;10.118;2024-03-17T04:05:04;3.80;99.90
8892;DHT22;4482;54.332;10.118;2024-03-17T04:07:32;3.70;99.90
8892;DHT22;4482;54.332;10.118;2024-03-17T04:09:59;3.70;99.90
8892;DHT22;4482;54.332;10.118;2024-03-17T04:12:26;3.70;99.90
8892;DHT22;4482;54.332;10.118;2024-03-17T04:14:56;3.70;99.90
8892;DHT22;4482;54.332;10.118;2024-03-17T04:17:23;3.60;99.90
8892;DHT22;4482;54.332;10.118;2024-03-17T04:19:49;3.60;99.90
8892;DHT22;4482;54.332;10.118;2024-03-17T04:22:16;3.60;99.90
8892;DHT22;4482;54.332;10.118;2024-03-17T04:24:44;3.60;99.90
8892;DHT22;4482;54.332;10.118;2024-03-17T04:27:12;3.50;99.90
8892;DHT22;4482;54.332;10.118;2024-03-17T04:29:39;3.50;99.90
8892;DHT22;4482;54.332;10.118;2024-03-17T04:32:06;3.50;99.90
8892;DHT22;4482;54.332;10.118;2024-03-17T04:34:32;3.40;99.90
8892;DHT22;4482;54.332;10.118;2024-03-17T04:36:59;3.40;99.90
8892;DHT22;4482;54.332;10.118;2024-03-17T04:39:26;3.40;99.90
8892;DHT22;4482;54.332;10.118;2024-03-17T04:41:54;3.40;99.90
8892;DHT22;4482;54.332;10.118;2024-03-17T04:44:21;3.30;99.90
8892;DHT22;4482;54.332;10.118;2024-03-17T04:46:48;3.30;99.90
8892;DHT22;4482;54.332;10.118;2024-03-17T04:49:16;3.30;99.90
8892;DHT22;4482;54.332;10.118;2024-03-17T04:51:42;3.30;99.90
8892;DHT22;4482;54.332;10.118;2024-03-17T04:54:09;3.60;99.90
8892;DHT22;4482;54.332;10.118;2024-03-17T04:56:37;3.70;99.90
8892;DHT22;4482;54.332;10.118;2024-03-17T04:59:05;3.50;99.90
8892;DHT22;4482;54.332;10.118;2024-03-17T05:01:34;3.40;99.90
8892;DHT22;4482;54.332;10.118;2024-03-17T05:04:01;3.30;99.90
8892;DHT22;4482;54.332;10.118;2024-03-17T05:06:29;3.20;99.90
8892;DHT22;4482;54.332;10.118;2024-03-17T05:08:56;3.20;99.90
8892;DHT22;4482;54.332;10.118;2024-03-17T05:11:23;3.20;99.90
8892;DHT22;4482;54.332;10.118;2024-03-17T05:13:50;3.10;99.90
8892;DHT22;4482;54.332;10.118;2024-03-17T05:16:18;3.10;99.90
8892;DHT22;4482;54.332;10.118;2024-03-17T05:18:48;3.10;99.90
8892;DHT22;4482;54.332;10.118;2024-03-17T05:21:15;3.10;99.90
8892;DHT22;4482;54.332;10.118;2024-03-17T05:23:41;3.10;99.90
8892;DHT22;4482;54.332;10.118;2024-03-17T05:26:08;3.10;99.90
8892;DHT22;4482;54.332;10.118;2024-03-17T05:28:35;3.20;99.90
8892;DHT22;4482;54.332;10.118;2024-03-17T05:31:02;3.20;99.90
8892;DHT22;4482;54.332;10.118;2024-03-17T05:33:31;3.10;99.90
8892;DHT22;4482;54.332;10.118;2024-03-17T05:35:58;3.10;99.90
8892;DHT22;4482;54.332;10.118;2024-03-17T05:38:25;3.10;99.90
8892;DHT22;4482;54.332;10.118;2024-03-17T05:40:53;3.10;99.90
8892;DHT22;4482;54.332;10.118;2024-03-17T05:43:20;3.00;99.90
8892;DHT22;4482;54.332;10.118;2024-03-17T05:45:47;3.10;99.90
8892;DHT22;4482;54.332;10.118;2024-03-17T05:48:13;3.10;99.90
8892;DHT22;4482;54.332;10.118;2024-03-17T05:50:41;3.10;99.90
8892;DHT22;4482;54.332;10.118;2024-03-17T05:53:08;3.10;99.90
8892;DHT22;4482;54.332;10.118;2024-03-17T05:55:35;3.20;99.90
8892;DHT22;4482;54.332;10.118;2024-03-17T05:58:02;3.30;99.90
8892;DHT22;4482;54.332;10.118;2024-03-17T06:00:29;3.30;99.90
8892;DHT22;4482;54.332;10.118;2024-03-17T06:02:56;3.30;99.90
8892;DHT22;4482;54.332;10.118;2024-03-17T06:05:23;3.30;99.90
8892;DHT22;4482;54.332;10.118;2024-03-17T06:07:51;3.40;99.90
8892;DHT22;4482;54.332;10.118;2024-03-17T06:10:18;3.40;99.90
8892;DHT22;4482;54.332;10.118;2024-03-17T06:12:49;3.40;99.90
8892;DHT22;4482;54.332;10.118;2024-03-17T06:15:16;3.50;99.90
8892;DHT22;4482;54.332;10.118;2024-03-17T06:17:43;3.60;99.90
8892;DHT22;4482;54.332;10.118;2024-03-17T06:20:10;3.60;99.90
8892;DHT22;4482;54.332;10.118;2024-03-17T06:22:38;3.60;99.90
8892;DHT22;4482;54.332;10.118;2024-03-17T06:25:07;3.70;99.90
8892;DHT22;4482;54.332;10.118;2024-03-17T06:27:34;3.80;99.90
8892;DHT22;4482;54.332;10.118;2024-03-17T06:30:01;3.80;99.90
8892;DHT22;4482;54.332;10.118;2024-03-17T06:32:29;3.90;99.90
8892;DHT22;4482;54.332;10.118;2024-03-17T06:34:56;3.90;99.90
8892;DHT22;4482;54.332;10.118;2024-03-17T06:37:23;4.00;99.90
8892;DHT22;4482;54.332;10.118;2024-03-17T06:39:50;4.00;99.90
8892;DHT22;4482;54.332;10.118;2024-03-17T06:42:18;4.00;99.90
8892;DHT22;4482;54.332;10.118;2024-03-17T06:44:45;4.10;99.90
8892;DHT22;4482;54.332;10.118;2024-03-17T06:47:12;4.30;99.90
8892;DHT22;4482;54.332;10.118;2024-03-17T06:49:39;4.30;99.90
8892;DHT22;4482;54.332;10.118;2024-03-17T06:52:05;4.40;99.90
8892;DHT22;4482;54.332;10.118;2024-03-17T06:54:32;4.60;99.90
8892;DHT22;4482;54.332;10.118;2024-03-17T06:56:59;4.60;99.90
8892;DHT22;4482;54.332;10.118;2024-03-17T06:59:27;4.80;99.90
8892;DHT22;4482;54.332;10.118;2024-03-17T07:01:54;4.80;99.90
8892;DHT22;4482;54.332;10.118;2024-03-17T07:04:20;4.70;99.90
8892;DHT22;4482;54.332;10.118;2024-03-17T07:06:47;4.60;99.90
8892;DHT22;4482;54.332;10.118;2024-03-17T07:09:15;4.90;99.90
8892;DHT22;4482;54.332;10.118;2024-03-17T07:11:42;5.00;99.90
8892;DHT22;4482;54.332;10.118;2024-03-17T07:14:10;5.30;99.90
8892;DHT22;4482;54.332;10.118;2024-03-17T07:16:38;5.40;99.90
8892;DHT22;4482;54.332;10.118;2024-03-17T07:19:05;5.50;99.90
8892;DHT22;4482;54.332;10.118;2024-03-17T07:21:31;5.70;99.90
8892;DHT22;4482;54.332;10.118;2024-03-17T07:24:00;6.00;99.90
8892;DHT22;4482;54.332;10.118;2024-03-17T07:26:29;6.50;99.90
8892;DHT22;4482;54.332;10.118;2024-03-17T07:28:56;6.90;99.90
8892;DHT22;4482;54.332;10.118;2024-03-17T07:31:23;7.20;99.90
8892;DHT22;4482;54.332;10.118;2024-03-17T07:33:52;7.40;99.90
8892;DHT22;4482;54.332;10.118;2024-03-17T07:36:19;7.50;99.90
8892;DHT22;4482;54.332;10.118;2024-03-17T07:38:47;7.70;99.90
8892;DHT22;4482;54.332;10.118;2024-03-17T07:41:14;7.70;99.90
8892;DHT22;4482;54.332;10.118;2024-03-17T07:43:40;7.60;99.90
8892;DHT22;4482;54.332;10.118;2024-03-17T07:46:08;7.70;99.90
8892;DHT22;4482;54.332;10.118;2024-03-17T07:48:35;8.10;99.90
8892;DHT22;4482;54.332;10.118;2024-03-17T07:51:05;8.30;99.90
8892;DHT22;4482;54.332;10.118;2024-03-17T07:53:32;8.10;99.90
8892;DHT22;4482;54.332;10.118;2024-03-17T07:56:00;7.60;99.90
8892;DHT22;4482;54.332;10.118;2024-03-17T07:58:27;7.50;99.90
8892;DHT22;4482;54.332;10.118;2024-03-17T08:00:56;7.20;99.90
8892;DHT22;4482;54.332;10.118;2024-03-17T08:03:24;6.40;99.90
8892;DHT22;4482;54.332;10.118;2024-03-17T08:05:51;5.80;99.90
8892;DHT22;4482;54.332;10.118;2024-03-17T08:08:20;5.30;99.90
8892;DHT22;4482;54.332;10.118;2024-03-17T08:10:46;5.20;99.90
8892;DHT22;4482;54.332;10.118;2024-03-17T08:13:13;5.20;99.90
8892;DHT22;4482;54.332;10.118;2024-03-17T08:15:41;5.10;99.90
8892;DHT22;4482;54.332;10.118;2024-03-17T08:18:08;5.20;99.90
8892;DHT22;4482;54.332;10.118;2024-03-17T08:20:37;5.30;99.90
8892;DHT22;4482;54.332;10.118;2024-03-17T08:23:04;5.20;99.90
8892;DHT22;4482;54.332;10.118;2024-03-17T08:25:33;5.20;99.90
8892;DHT22;4482;54.332;10.118;2024-03-17T08:28:00;5.30;99.90
8892;DHT22;4482;54.332;10.118;2024-03-17T08:30:27;5.40;99.90
8892;DHT22;4482;54.332;10.118;2024-03-17T08:32:53;5.40;99.90
8892;DHT22;4482;54.332;10.118;2024-03-17T08:35:20;5.10;99.90
8892;DHT22;4482;54.332;10.118;2024-03-17T08:37:47;5.00;99.90
8892;DHT22;4482;54.332;10.118;2024-03-17T08:40:14;5.10;99.90
8892;DHT22;4482;54.332;10.118;2024-03-17T08:42:42;5.30;99.90
8892;DHT22;4482;54.332;10.118;2024-03-17T08:45:09;5.30;99.90
8892;DHT22;4482;54.332;10.118;2024-03-17T08:47:37;5.30;99.90
8892;DHT22;4482;54.332;10.118;2024-03-17T08:50:04;5.40;99.90
8892;DHT22;4482;54.332;10.118;2024-03-17T08:52:33;5.40;99.90
8892;DHT22;4482;54.332;10.118;2024-03-17T08:54:59;5.60;99.90
8892;DHT22;4482;54.332;10.118;2024-03-17T08:57:28;5.70;99.90
8892;DHT22;4482;54.332;10.118;2024-03-17T08:59:56;6.00;99.90
8892;DHT22;4482;54.332;10.118;2024-03-17T09:02:23;6.10;99.90
8892;DHT22;4482;54.332;10.118;2024-03-17T09:04:50;6.00;99.90
8892;DHT22;4482;54.332;10.118;2024-03-17T09:07:16;6.00;99.90
8892;DHT22;4482;54.332;10.118;2024-03-17T09:09:43;6.00;99.90
8892;DHT22;4482;54.332;10.118;2024-03-17T09:12:10;6.10;99.90
8892;DHT22;4482;54.332;10.118;2024-03-17T09:14:37;6.30;99.90
8892;DHT22;4482;54.332;10.118;2024-03-17T09:17:06;6.20;99.90
8892;DHT22;4482;54.332;10.118;2024-03-17T09:19:36;6.20;99.90
8892;DHT22;4482;54.332;10.118;2024-03-17T09:22:03;6.10;99.90
8892;DHT22;4482;54.332;10.118;2024-03-17T09:24:30;6.10;99.90
8892;DHT22;4482;54.332;10.118;2024-03-17T09:26:57;6.20;99.90
8892;DHT22;4482;54.332;10.118;2024-03-17T09:29:24;6.20;99.90
8892;DHT22;4482;54.332;10.118;2024-03-17T09:31:50;6.10;99.90
8892;DHT22;4482;54.332;10.118;2024-03-17T09:34:18;6.00;99.90
8892;DHT22;4482;54.332;10.118;2024-03-17T09:36:45;5.90;99.90
8892;DHT22;4482;54.332;10.118;2024-03-17T09:39:12;6.00;99.90
8892;DHT22;4482;54.332;10.118;2024-03-17T09:41:39;6.10;99.90
8892;DHT22;4482;54.332;10.118;2024-03-17T09:44:09;6.10;99.90
8892;DHT22;4482;54.332;10.118;2024-03-17T09:46:38;6.10;99.90
8892;DHT22;4482;54.332;10.118;2024-03-17T09:49:05;6.10;99.90
8892;DHT22;4482;54.332;10.118;2024-03-17T09:51:38;6.10;99.90
8892;DHT22;4482;54.332;10.118;2024-03-17T09:54:05;6.10;99.90
8892;DHT22;4482;54.332;10.118;2024-03-17T09:56:41;6.00;99.90
8892;DHT22;4482;54.332;10.118;2024-03-17T09:59:08;6.10;99.90
8892;DHT22;4482;54.332;10.118;2024-03-17T10:01:34;6.10;99.90
8892;DHT22;4482;54.332;10.118;2024-03-17T10:04:01;6.10;99.90
8892;DHT22;4482;54.332;10.118;2024-03-17T10:06:30;6.00;99.90
8892;DHT22;4482;54.332;10.118;2024-03-17T10:08:59;6.10;99.90
8892;DHT22;4482;54.332;10.118;2024-03-17T10:11:32;6.10;99.90
8892;DHT22;4482;54.332;10.118;2024-03-17T10:13:59;6.10;99.90
8892;DHT22;4482;54.332;10.118;2024-03-17T10:16:26;6.00;99.90
8892;DHT22;4482;54.332;10.118;2024-03-17T10:19:05;6.00;99.90
8892;DHT22;4482;54.332;10.118;2024-03-17T10:21:32;5.90;99.90
8892;DHT22;4482;54.332;10.118;2024-03-17T10:24:07;5.90;99.90
8892;DHT22;4482;54.332;10.118;2024-03-17T10:26:36;6.00;99.90
8892;DHT22;4482;54.332;10.118;2024-03-17T10:29:02;5.90;99.90
8892;DHT22;4482;54.332;10.118;2024-03-17T10:31:29;5.80;99.90
8892;DHT22;4482;54.332;10.118;2024-03-17T10:34:01;5.90;99.90
8892;DHT22;4482;54.332;10.118;2024-03-17T10:36:27;5.80;99.90
8892;DHT22;4482;54.332;10.118;2024-03-17T10:38:54;5.90;99.90
8892;DHT22;4482;54.332;10.118;2024-03-17T10:41:22;5.90;99.90
8892;DHT22;4482;54.332;10.118;2024-03-17T10:43:49;6.00;99.90
8892;DHT22;4482;54.332;10.118;2024-03-17T10:46:16;6.10;99.90
8892;DHT22;4482;54.332;10.118;2024-03-17T10:48:43;6.20;99.90
8892;DHT22;4482;54.332;10.118;2024-03-17T10:51:10;6.10;99.90
8892;DHT22;4482;54.332;10.118;2024-03-17T10:53:42;5.90;99.90
8892;DHT22;4482;54.332;10.118;2024-03-17T10:56:09;6.00;99.90
8892;DHT22;4482;54.332;10.118;2024-03-17T10:58:38;5.90;99.90
8892;DHT22;4482;54.332;10.118;2024-03-17T11:01:07;5.90;99.90
8892;DHT22;4482;54.332;10.118;2024-03-17T11:03:38;5.90;99.90
8892;DHT22;4482;54.332;10.118;2024-03-17T11:06:05;5.90;99.90
8892;DHT22;4482;54.332;10.118;2024-03-17T11:08:32;5.80;99.90
8892;DHT22;4482;54.332;10.118;2024-03-17T11:11:00;5.90;99.90
8892;DHT22;4482;54.332;10.118;2024-03-17T11:13:27;6.00;99.90
8892;DHT22;4482;54.332;10.118;2024-03-17T11:15:55;6.10;99.90
8892;DHT22;4482;54.332;10.118;2024-03-17T11:21:06;6.00;99.90
8892;DHT22;4482;54.332;10.118;2024-03-17T11:23:40;6.00;99.90
8892;DHT22;4482;54.332;10.118;2024-03-17T11:26:07;6.00;99.90
8892;DHT22;4482;54.332;10.118;2024-03-17T11:28:47;5.90;99.90
8892;DHT22;4482;54.332;10.118;2024-03-17T11:31:37;6.00;99.90
8892;DHT22;4482;54.332;10.118;2024-03-17T11:34:06;6.00;99.90
8892;DHT22;4482;54.332;10.118;2024-03-17T11:36:34;6.10;99.90
8892;DHT22;4482;54.332;10.118;2024-03-17T11:39:02;6.00;99.90
8892;DHT22;4482;54.332;10.118;2024-03-17T11:41:36;6.10;99.90
8892;DHT22;4482;54.332;10.118;2024-03-17T11:44:15;6.20;99.90
8892;DHT22;4482;54.332;10.118;2024-03-17T11:46:45;6.30;99.90
8892;DHT22;4482;54.332;10.118;2024-03-17T11:49:16;6.40;99.90
8892;DHT22;4482;54.332;10.118;2024-03-17T11:51:43;6.40;99.90
8892;DHT22;4482;54.332;10.118;2024-03-17T11:54:11;6.40;99.90
8892;DHT22;4482;54.332;10.118;2024-03-17T11:56:40;6.30;99.90
8892;DHT22;4482;54.332;10.118;2024-03-17T11:59:05;6.30;99.90
8892;DHT22;4482;54.332;10.118;2024-03-17T12:01:34;6.20;99.90
8892;DHT22;4482;54.332;10.118;2024-03-17T12:04:01;6.20;99.90
8892;DHT22;4482;54.332;10.118;2024-03-17T12:06:30;6.20;99.90
8892;DHT22;4482;54.332;10.118;2024-03-17T12:09:07;6.10;99.90
8892;DHT22;4482;54.332;10.118;2024-03-17T12:11:35;6.10;99.90
8892;DHT22;4482;54.332;10.118;2024-03-17T12:14:08;6.30;99.90
8892;DHT22;4482;54.332;10.118;2024-03-17T12:16:36;6.40;99.90
8892;DHT22;4482;54.332;10.118;2024-03-17T12:19:07;6.40;99.90
8892;DHT22;4482;54.332;10.118;2024-03-17T12:21:34;6.40;99.90
8892;DHT22;4482;54.332;10.118;2024-03-17T12:24:00;6.40;99.90
8892;DHT22;4482;54.332;10.118;2024-03-17T12:26:28;6.30;99.90
8892;DHT22;4482;54.332;10.118;2024-03-17T12:28:55;6.20;99.90
8892;DHT22;4482;54.332;10.118;2024-03-17T12:31:21;6.10;99.90
8892;DHT22;4482;54.332;10.118;2024-03-17T12:33:47;6.20;99.90
8892;DHT22;4482;54.332;10.118;2024-03-17T12:36:15;6.20;99.90
8892;DHT22;4482;54.332;10.118;2024-03-17T12:38:41;6.20;99.90
8892;DHT22;4482;54.332;10.118;2024-03-17T12:41:15;6.20;99.90
8892;DHT22;4482;54.332;10.118;2024-03-17T12:43:47;6.20;99.90
8892;DHT22;4482;54.332;10.118;2024-03-17T12:46:14;6.10;99.90
8892;DHT22;4482;54.332;10.118;2024-03-17T12:48:39;6.00;99.90
8892;DHT22;4482;54.332;10.118;2024-03-17T12:51:12;6.00;99.90
8892;DHT22;4482;54.332;10.118;2024-03-17T12:53:39;5.90;99.90
8892;DHT22;4482;54.332;10.118;2024-03-17T12:56:06;6.00;99.90
8892;DHT22;4482;54.332;10.118;2024-03-17T12:59:04;6.00;99.90
8892;DHT22;4482;54.332;10.118;2024-03-17T13:01:49;6.10;99.90
8892;DHT22;4482;54.332;10.118;2024-03-17T13:04:16;6.10;99.90
8892;DHT22;4482;54.332;10.118;2024-03-17T13:06:43;6.20;99.90
8892;DHT22;4482;54.332;10.118;2024-03-17T13:09:11;6.30;99.90
8892;DHT22;4482;54.332;10.118;2024-03-17T13:11:38;6.40;99.90
8892;DHT22;4482;54.332;10.118;2024-03-17T13:14:05;6.40;99.90
8892;DHT22;4482;54.332;10.118;2024-03-17T13:16:32;6.50;99.90
8892;DHT22;4482;54.332;10.118;2024-03-17T13:18:59;6.50;99.90
8892;DHT22;4482;54.332;10.118;2024-03-17T13:21:25;6.30;99.90
8892;DHT22;4482;54.332;10.118;2024-03-17T13:23:52;6.30;99.90
8892;DHT22;4482;54.332;10.118;2024-03-17T13:26:20;6.20;99.90
8892;DHT22;4482;54.332;10.118;2024-03-17T13:28:47;6.30;99.90
8892;DHT22;4482;54.332;10.118;2024-03-17T13:31:13;6.30;99.90
8892;DHT22;4482;54.332;10.118;2024-03-17T13:33:40;6.30;99.90
8892;DHT22;4482;54.332;10.118;2024-03-17T13:36:07;6.30;99.90
8892;DHT22;4482;54.332;10.118;2024-03-17T13:38:34;6.20;99.90
8892;DHT22;4482;54.332;10.118;2024-03-17T13:41:01;6.10;99.90
8892;DHT22;4482;54.332;10.118;2024-03-17T13:43:31;6.00;99.90
8892;DHT22;4482;54.332;10.118;2024-03-17T13:45:58;6.20;99.90
8892;DHT22;4482;54.332;10.118;2024-03-17T13:48:25;6.20;99.90
8892;DHT22;4482;54.332;10.118;2024-03-17T13:50:51;6.20;99.90
8892;DHT22;4482;54.332;10.118;2024-03-17T13:53:18;6.20;99.90
8892;DHT22;4482;54.332;10.118;2024-03-17T13:55:45;6.20;99.90
8892;DHT22;4482;54.332;10.118;2024-03-17T13:58:12;6.30;99.90
8892;DHT22;4482;54.332;10.118;2024-03-17T14:00:40;6.30;99.90
8892;DHT22;4482;54.332;10.118;2024-03-17T14:03:08;6.20;99.90
8892;DHT22;4482;54.332;10.118;2024-03-17T14:05:35;6.10;99.90
8892;DHT22;4482;54.332;10.118;2024-03-17T14:08:02;6.00;99.90
8892;DHT22;4482;54.332;10.118;2024-03-17T14:10:29;6.10;99.90
8892;DHT22;4482;54.332;10.118;2024-03-17T14:12:56;6.00;99.90
8892;DHT22;4482;54.332;10.118;2024-03-17T14:15:23;6.00;99.90
8892;DHT22;4482;54.332;10.118;2024-03-17T14:17:51;6.10;99.90
8892;DHT22;4482;54.332;10.118;2024-03-17T14:20:18;6.10;99.90
8892;DHT22;4482;54.332;10.118;2024-03-17T14:22:45;6.20;99.90
8892;DHT22;4482;54.332;10.118;2024-03-17T14:25:15;6.30;99.90
8892;DHT22;4482;54.332;10.118;2024-03-17T14:27:42;6.40;99.90
8892;DHT22;4482;54.332;10.118;2024-03-17T14:30:09;6.40;99.90
8892;DHT22;4482;54.332;10.118;2024-03-17T14:32:38;6.40;99.90
8892;DHT22;4482;54.332;10.118;2024-03-17T14:35:07;6.30;99.90
8892;DHT22;4482;54.332;10.118;2024-03-17T14:37:36;6.20;99.90
8892;DHT22;4482;54.332;10.118;2024-03-17T14:40:03;6.10;99.90
8892;DHT22;4482;54.332;10.118;2024-03-17T14:42:37;6.10;99.90
8892;DHT22;4482;54.332;10.118;2024-03-17T14:45:04;6.10;99.90
8892;DHT22;4482;54.332;10.118;2024-03-17T14:47:31;6.20;99.90
8892;DHT22;4482;54.332;10.118;2024-03-17T14:49:57;6.10;99.90
8892;DHT22;4482;54.332;10.118;2024-03-17T14:52:25;6.10;99.90
8892;DHT22;4482;54.332;10.118;2024-03-17T14:54:52;6.00;99.90
8892;DHT22;4482;54.332;10.118;2024-03-17T14:57:21;6.00;99.90
8892;DHT22;4482;54.332;10.118;2024-03-17T14:59:48;6.00;99.90
8892;DHT22;4482;54.332;10.118;2024-03-17T15:02:15;6.00;99.90
8892;DHT22;4482;54.332;10.118;2024-03-17T15:04:42;5.90;99.90
8892;DHT22;4482;54.332;10.118;2024-03-17T15:07:08;5.90;99.90
8892;DHT22;4482;54.332;10.118;2024-03-17T15:09:37;6.10;99.90
8892;DHT22;4482;54.332;10.118;2024-03-17T15:12:06;6.00;99.90
8892;DHT22;4482;54.332;10.118;2024-03-17T15:14:32;5.90;99.90
8892;DHT22;4482;54.332;10.118;2024-03-17T15:16:59;5.90;99.90
8892;DHT22;4482;54.332;10.118;2024-03-17T15:19:26;5.90;99.90
8892;DHT22;4482;54.332;10.118;2024-03-17T15:21:52;5.80;99.90
8892;DHT22;4482;54.332;10.118;2024-03-17T15:24:19;5.80;99.90
8892;DHT22;4482;54.332;10.118;2024-03-17T15:26:47;5.80;99.90
8892;DHT22;4482;54.332;10.118;2024-03-17T15:29:15;5.80;99.90
8892;DHT22;4482;54.332;10.118;2024-03-17T15:31:43;5.80;99.90
8892;DHT22;4482;54.332;10.118;2024-03-17T15:34:10;5.80;99.90
8892;DHT22;4482;54.332;10.118;2024-03-17T15:36:37;5.80;99.90
8892;DHT22;4482;54.332;10.118;2024-03-17T15:39:04;5.60;99.90
8892;DHT22;4482;54.332;10.118;2024-03-17T15:41:31;5.50;99.90
8892;DHT22;4482;54.332;10.118;2024-03-17T15:44:00;5.50;99.90
8892;DHT22;4482;54.332;10.118;2024-03-17T15:46:27;5.60;99.90
8892;DHT22;4482;54.332;10.118;2024-03-17T15:48:54;5.60;99.90
8892;DHT22;4482;54.332;10.118;2024-03-17T15:51:23;5.70;99.90
8892;DHT22;4482;54.332;10.118;2024-03-17T15:53:50;5.70;99.90
8892;DHT22;4482;54.332;10.118;2024-03-17T15:56:18;5.70;99.90
8892;DHT22;4482;54.332;10.118;2024-03-17T15:58:45;5.70;99.90
8892;DHT22;4482;54.332;10.118;2024-03-17T16:01:14;5.80;99.90
8892;DHT22;4482;54.332;10.118;2024-03-17T16:03:40;5.70;99.90
8892;DHT22;4482;54.332;10.118;2024-03-17T16:06:11;5.70;99.90
8892;DHT22;4482;54.332;10.118;2024-03-17T16:08:39;5.80;99.90